M I D A S
Marine Information and Data Acquisition System
Tripno 1403 of the Zeeleeuw from 2007-11-20 08:30:43 to 2007-11-20 17:03:29
Back to CruiseResearch ActivitiesStationsMapUnderway DataData graphs

EquipmentUnitsComment
TimeDGPSUTC
LatitudeDGPSDM.mWGS84
LongitudeDGPSDM.mWGS84
HeadingGyrodeg 
SOGDGPSknotsSpeed over ground
COGDGPSdegCourse over ground
DepthEcho soundermeters200 kHz
Missing or incorrect values are displayed as -999
Navigation data collected by the RV Zeeleeuw from 2007-11-20 08:29:58 to 2007-11-20 17:13:43
Time Latitude Longitude Heading SOG COG Depth
2007-11-20 08:31:03 51°13.616 2°56.04 114.1 4.3 293 -999
2007-11-20 08:32:03 51°13.653 2°55.914 121.1 5.7 298 -999
2007-11-20 08:33:03 51°13.689 2°55.801 110.3 3.9 290 -999
2007-11-20 08:34:03 51°13.701 2°55.726 92.4 1.7 281 15.1
2007-11-20 08:35:03 51°13.711 2°55.72 44.3 1.6 19 14.3
2007-11-20 08:36:03 51°13.753 2°55.71 338.9 4 332 13
2007-11-20 08:37:03 51°13.849 2°55.625 334.7 8 331 12.7
2007-11-20 08:38:03 51°13.971 2°55.523 336.6 8 333 12.7
2007-11-20 08:39:03 51°14.084 2°55.434 336.9 7.8 333 11.9
2007-11-20 08:40:03 51°14.208 2°55.315 328.8 9.6 323 11.6
2007-11-20 08:41:03 51°14.329 2°55.117 313 11.2 308 13
2007-11-20 08:42:03 51°14.453 2°54.867 314.9 12.5 318 12.8
2007-11-20 08:43:03 51°14.617 2°54.668 325.2 12.4 329 11.8
2007-11-20 08:44:03 51°14.763 2°54.45 302.6 11.9 306 12
2007-11-20 08:45:03 51°14.914 2°54.232 318.6 12.4 322 11.1
2007-11-20 08:46:03 51°15.093 2°54.061 328.2 12.6 328 11
2007-11-20 08:47:03 51°15.282 2°53.916 338.2 12.7 339 11.5
2007-11-20 08:48:03 51°15.471 2°53.769 328.5 12.6 329 12.2
2007-11-20 08:49:03 51°15.658 2°53.614 332.4 12.6 333 12.7
2007-11-20 08:50:03 51°15.843 2°53.456 331.6 12.7 333 13.2
2007-11-20 08:51:03 51°16.032 2°53.306 330.9 12.7 333 13.5
2007-11-20 08:52:03 51°16.221 2°53.156 331 12.7 332 13.6
2007-11-20 08:53:03 51°16.412 2°53.011 335.4 12.8 338 13.6
2007-11-20 08:54:03 51°16.611 2°52.883 333.1 12.7 335 13.5
2007-11-20 08:55:03 51°16.804 2°52.743 334.4 12.8 336 11.6
2007-11-20 08:56:03 51°16.996 2°52.599 333.8 12.8 335 12
2007-11-20 08:57:03 51°17.19 2°52.457 334.5 12.9 336 11.8
2007-11-20 08:58:03 51°17.381 2°52.306 330.9 12.8 334 12.4
2007-11-20 08:59:03 51°17.575 2°52.163 334.2 12.9 336 12.4
2007-11-20 09:00:03 51°17.771 2°52.023 334.6 12.9 335 12.3
2007-11-20 09:01:03 51°17.963 2°51.873 334.5 12.9 335 12.3
2007-11-20 09:02:03 51°18.159 2°51.732 334.8 12.9 335 13
2007-11-20 09:03:03 51°18.355 2°51.587 335.2 13 335 14
2007-11-20 09:04:03 51°18.552 2°51.445 334.4 13 336 15.2
2007-11-20 09:05:03 51°18.75 2°51.304 333.8 13 335 16.2
2007-11-20 09:06:03 51°18.946 2°51.164 333.7 12.8 334 16.6
2007-11-20 09:07:03 51°19.138 2°51.018 333.9 12.8 335 16.7
2007-11-20 09:08:03 51°19.331 2°50.876 335.1 12.8 336 16.3
2007-11-20 09:09:03 51°19.523 2°50.733 335 12.8 336 14.3
2007-11-20 09:10:03 51°19.716 2°50.592 334.5 12.7 335 13.8
2007-11-20 09:11:03 51°19.91 2°50.454 335.2 12.8 336 15.8
2007-11-20 09:12:03 51°20.104 2°50.315 334.5 12.8 337 17.7
2007-11-20 09:13:03 51°20.301 2°50.182 335 12.9 338 19.5
2007-11-20 09:14:03 51°20.499 2°50.046 334.5 13 337 22.4
2007-11-20 09:15:03 51°20.696 2°49.913 334.4 12.9 337 24.1
2007-11-20 09:16:03 51°20.894 2°49.778 334.5 13 338 24.7
2007-11-20 09:17:03 51°21.094 2°49.643 334.1 13.1 337 24.5
2007-11-20 09:18:03 51°21.293 2°49.508 333.8 13 336 23.9
2007-11-20 09:19:03 51°21.489 2°49.362 334.4 12.9 334 23.6
2007-11-20 09:20:03 51°21.687 2°49.226 334.8 13 335 24.3
2007-11-20 09:21:03 51°21.887 2°49.091 334.8 13 338 24.9
2007-11-20 09:22:03 51°22.085 2°48.96 334.6 12.9 337 25
2007-11-20 09:23:03 51°22.275 2°48.814 324.5 12.5 325 24.8
2007-11-20 09:24:03 51°22.401 2°48.57 294.2 11.6 295 21
2007-11-20 09:25:03 51°22.427 2°48.274 269.6 11.3 274 19.8
2007-11-20 09:26:03 51°22.459 2°47.973 277.1 11.4 280 17.7
2007-11-20 09:27:03 51°22.493 2°47.673 276.7 11.6 281 20.9
2007-11-20 09:28:03 51°22.535 2°47.373 277.9 11.5 281 20.1
2007-11-20 09:29:03 51°22.577 2°47.072 279.3 11.5 284 18.1
2007-11-20 09:30:03 51°22.609 2°46.77 275.5 11.5 279 22.1
2007-11-20 09:31:03 51°22.644 2°46.466 275.4 11.6 280 23.5
2007-11-20 09:32:03 51°22.678 2°46.16 276.1 11.7 280 24.6
2007-11-20 09:33:04 51°22.701 2°45.848 272.1 11.7 277 25.8
2007-11-20 09:34:03 51°22.726 2°45.544 272.6 11.7 278 24.7
2007-11-20 09:35:03 51°22.747 2°45.237 270.4 11.6 275 28.4
2007-11-20 09:36:04 51°22.77 2°44.924 271.6 11.6 275 28.1
2007-11-20 09:37:04 51°22.788 2°44.62 271.6 11.2 274 27.8
2007-11-20 09:38:04 51°22.802 2°44.325 271.8 11.2 275 26.6
2007-11-20 09:39:04 51°22.807 2°44.031 264.7 10.9 267 28.4
2007-11-20 09:40:03 51°22.813 2°43.741 269.7 11.2 274 27.8
2007-11-20 09:41:04 51°22.822 2°43.439 268.9 11.1 272 26.8
2007-11-20 09:42:04 51°22.829 2°43.144 267.3 11.1 271 27.1
2007-11-20 09:43:04 51°22.837 2°42.847 268.5 11.2 273 28.2
2007-11-20 09:44:04 51°22.847 2°42.549 268.6 11.2 272 28
2007-11-20 09:45:04 51°22.857 2°42.251 268.4 11.2 271 28.2
2007-11-20 09:46:04 51°22.871 2°41.949 268.8 11.5 275 28.1
2007-11-20 09:47:04 51°22.879 2°41.648 267.3 11.3 272 29.3
2007-11-20 09:48:04 51°22.884 2°41.344 268.5 11.5 274 30
2007-11-20 09:49:04 51°22.888 2°41.04 267 11.3 270 31.3
2007-11-20 09:50:04 51°22.891 2°40.735 267.6 11.6 271 30
2007-11-20 09:51:04 51°22.896 2°40.432 267.9 11.2 271 30.4
2007-11-20 09:52:04 51°22.899 2°40.129 269.9 11.4 271 30.5
2007-11-20 09:53:04 51°22.901 2°39.825 269.3 11.4 270 31.6
2007-11-20 09:54:04 51°22.901 2°39.522 269.3 11.4 270 31.6
2007-11-20 09:55:03 51°22.903 2°39.224 269.1 11.2 270 31.5
2007-11-20 09:56:04 51°22.903 2°38.922 268.5 11.2 272 31.4
2007-11-20 09:57:03 51°22.905 2°38.629 267.8 11.2 271 31.7
2007-11-20 09:58:03 51°22.908 2°38.332 269.2 11.2 272 31.3
2007-11-20 09:59:03 51°22.909 2°38.035 267.9 11.2 272 31
2007-11-20 10:00:03 51°22.912 2°37.739 267.8 11.3 272 31
2007-11-20 10:01:03 51°22.919 2°37.438 268.4 11.3 272 29.9
2007-11-20 10:02:03 51°22.922 2°37.138 268.2 11.4 273 27
2007-11-20 10:03:03 51°22.924 2°36.836 268.4 11.5 270 28
2007-11-20 10:04:03 51°22.926 2°36.531 268 11.6 271 28.7
2007-11-20 10:05:03 51°22.929 2°36.223 268.4 11.6 270 24.2
2007-11-20 10:06:03 51°22.93 2°35.915 267.1 11.7 271 25
2007-11-20 10:07:03 51°22.932 2°35.607 266.8 11.6 270 25
2007-11-20 10:08:03 51°22.933 2°35.298 267.5 11.7 269 27.8
2007-11-20 10:09:03 51°22.935 2°34.985 269.1 11.8 270 26.5
2007-11-20 10:10:03 51°22.978 2°34.673 283.6 11.7 280 33.5
2007-11-20 10:11:03 51°22.961 2°34.37 256.9 11.6 259 33.5
2007-11-20 10:12:03 51°22.919 2°34.073 256.7 11.4 258 33.4
2007-11-20 10:13:03 51°22.879 2°33.772 258 11.6 259 32.9
2007-11-20 10:14:03 51°22.842 2°33.468 257.6 11.6 258 32.4
2007-11-20 10:15:03 51°22.805 2°33.166 256.3 11.6 258 32.8
2007-11-20 10:16:03 51°22.789 2°32.859 266.5 11.6 266 32.1
2007-11-20 10:17:03 51°22.777 2°32.553 265.3 11.4 267 31.7
2007-11-20 10:18:03 51°22.771 2°32.245 266.4 11.4 269 30.6
2007-11-20 10:19:03 51°22.761 2°31.944 266.6 11.2 267 31.5
2007-11-20 10:20:03 51°22.75 2°31.644 265.5 11.3 266 32
2007-11-20 10:21:03 51°22.739 2°31.344 265.6 11.3 269 31.3
2007-11-20 10:22:03 51°22.729 2°31.043 264.9 11.5 268 30.8
2007-11-20 10:23:03 51°22.722 2°30.741 264 11.3 265 31.4
2007-11-20 10:24:03 51°22.711 2°30.439 264.9 11.3 269 32.3
2007-11-20 10:25:03 51°22.704 2°30.135 265.6 11.6 268 33.5
2007-11-20 10:26:03 51°22.699 2°29.829 266.3 11.5 268 33.8
2007-11-20 10:27:03 51°22.693 2°29.521 266 11.6 268 34.2
2007-11-20 10:28:03 51°22.687 2°29.213 265.3 11.6 269 34
2007-11-20 10:29:03 51°22.677 2°28.908 265 11.5 266 34.5
2007-11-20 10:30:03 51°22.67 2°28.601 264.6 11.5 268 33.9
2007-11-20 10:31:03 51°22.661 2°28.296 264.8 11.6 267 34.7
2007-11-20 10:32:03 51°22.655 2°27.985 266.6 11.7 271 35.6
2007-11-20 10:33:03 51°22.649 2°27.677 264.1 11.6 268 35
2007-11-20 10:34:03 51°22.641 2°27.368 264.8 11.6 267 35.1
2007-11-20 10:35:03 51°22.632 2°27.06 264.4 11.6 266 34.6
2007-11-20 10:36:03 51°22.623 2°26.753 265.4 11.6 268 34.3
2007-11-20 10:37:03 51°22.615 2°26.441 266.1 11.7 268 33.9
2007-11-20 10:38:03 51°22.608 2°26.132 265.1 11.7 266 30
2007-11-20 10:39:04 51°22.617 2°25.817 275.8 11.7 278 23.7
2007-11-20 10:40:03 51°22.661 2°25.516 280.7 11.7 283 19.6
2007-11-20 10:41:04 51°22.719 2°25.208 284.9 12 289 29.7
2007-11-20 10:42:04 51°22.785 2°24.909 289.5 12 298 33.2
2007-11-20 10:43:03 51°22.921 2°24.668 315 12.6 317 34.3
2007-11-20 10:44:03 51°23.085 2°24.451 317.9 12.7 320 34.5
2007-11-20 10:45:03 51°23.258 2°24.252 327 13 332 35.9
2007-11-20 10:46:03 51°23.455 2°24.107 334.8 13.1 337 35.8
2007-11-20 10:47:03 51°23.65 2°23.955 331.4 13.1 335 35.5
2007-11-20 10:48:03 51°23.846 2°23.8 332.2 13.1 332 32.3
2007-11-20 10:49:03 51°24.039 2°23.642 332.2 13.1 334 32.1
2007-11-20 10:50:03 51°24.233 2°23.485 330.9 13.1 333 32.7
2007-11-20 10:51:03 51°24.425 2°23.325 331.2 13 330 33.3
2007-11-20 10:52:03 51°24.615 2°23.163 330.7 12.9 331 33.7
2007-11-20 10:53:03 51°24.803 2°23.001 330.5 12.7 331 34.1
2007-11-20 10:54:03 51°24.994 2°22.842 331.1 12.9 332 34.8
2007-11-20 10:55:03 51°25.187 2°22.687 332.4 12.9 333 35.5
2007-11-20 10:56:03 51°25.377 2°22.527 331.6 12.9 332 35.2
2007-11-20 10:57:03 51°25.567 2°22.367 330.8 12.8 332 33.9
2007-11-20 10:58:03 51°25.76 2°22.218 336.3 12.9 337 22.6
2007-11-20 10:59:03 51°25.956 2°22.084 336.7 12.8 338 17.9
2007-11-20 11:00:03 51°26.151 2°21.949 336.9 12.8 338 22.5
2007-11-20 11:01:03 51°26.348 2°21.813 333.9 12.9 335 32.6
2007-11-20 11:02:03 51°26.548 2°21.682 336.5 13.1 339 34.2
2007-11-20 11:03:03 51°26.715 2°21.597 343.4 8.6 346 34.7
2007-11-20 11:04:03 51°26.888 2°21.506 338.4 12.7 339 29.7
2007-11-20 11:05:03 51°27.096 2°21.391 344 13.4 344 30.1
2007-11-20 11:06:03 51°27.311 2°21.288 341.1 13.4 341 24.2
2007-11-20 11:07:03 51°27.525 2°21.176 340.5 13.4 342 21.6
2007-11-20 11:08:03 51°27.739 2°21.072 344.7 13.4 346 28.1
2007-11-20 11:09:03 51°27.953 2°20.972 344 13.3 344 31.8
2007-11-20 11:10:03 51°28.164 2°20.869 344.8 13.3 342 35.1
2007-11-20 11:11:03 51°28.377 2°20.772 344.7 13.3 345 34.3
2007-11-20 11:12:03 51°28.588 2°20.671 343 13.2 345 36
2007-11-20 11:13:03 51°28.8 2°20.567 344.5 13.2 342 36.1
2007-11-20 11:14:03 51°29.011 2°20.466 343.3 13.1 343 31.8
2007-11-20 11:15:03 51°29.223 2°20.364 344.3 13.3 345 32.7
2007-11-20 11:16:03 51°29.436 2°20.265 345.4 13.2 345 34.4
2007-11-20 11:17:03 51°29.647 2°20.161 344.4 13.2 341 36.1
2007-11-20 11:18:03 51°29.846 2°20.069 345.1 11.9 345 31.2
2007-11-20 11:19:03 51°30.032 2°19.98 343.9 10.8 346 33.4
2007-11-20 11:20:03 51°30.164 2°19.923 345.9 7 347 32.3
2007-11-20 11:21:03 51°30.27 2°19.885 344.9 6.2 346 32.4
2007-11-20 11:22:03 51°30.364 2°19.837 335.7 5.4 338 31.2
2007-11-20 11:23:03 51°30.437 2°19.773 319.7 4.8 326 28.1
2007-11-20 11:24:03 51°30.489 2°19.725 322.6 1.5 348 29.7
2007-11-20 11:25:03 51°30.501 2°19.729 332.4 0.5 6 29.9
2007-11-20 11:26:03 51°30.511 2°19.732 329.6 0.6 13 -999
2007-11-20 11:27:03 51°30.526 2°19.733 329.9 1 354 28.3
2007-11-20 11:28:03 51°30.544 2°19.728 333 1.3 350 26.4
2007-11-20 11:29:03 51°30.567 2°19.722 346.3 1.5 352 28.2
2007-11-20 11:30:03 51°30.59 2°19.718 3.4 1.4 354 23.9
2007-11-20 11:31:03 51°30.638 2°19.763 65 5 59 28.3
2007-11-20 11:32:03 51°30.65 2°19.849 116.1 2.3 90 27.8
2007-11-20 11:33:03 51°30.644 2°19.884 158 1.1 142 28.4
2007-11-20 11:34:03 51°30.637 2°19.886 185.3 0.4 202 28.3
2007-11-20 11:35:03 51°30.635 2°19.882 182.1 0.4 200 28.1
2007-11-20 11:36:03 51°30.625 2°19.881 178.6 0.5 180 27.4
2007-11-20 11:37:03 51°30.609 2°19.877 192.2 1.4 205 26.8
2007-11-20 11:38:03 51°30.591 2°19.844 218.7 1.6 238 24.3
2007-11-20 11:39:03 51°30.573 2°19.817 197.9 1.4 216 25.7
2007-11-20 11:40:03 51°30.555 2°19.786 218.1 1.9 236 25.9
2007-11-20 11:41:03 51°30.529 2°19.75 211.2 2.3 225 26.4
2007-11-20 11:42:04 51°30.512 2°19.695 233 1.8 256 28.2
2007-11-20 11:43:03 51°30.509 2°19.661 223.2 1 265 27.5
2007-11-20 11:44:03 51°30.51 2°19.64 213.5 0.8 291 26.8
2007-11-20 11:45:04 51°30.518 2°19.625 206.4 0.6 313 27.3
2007-11-20 11:46:03 51°30.515 2°19.617 178.1 1.2 167 26.6
2007-11-20 11:47:03 51°30.498 2°19.657 127.3 3 103 27.4
2007-11-20 11:48:03 51°30.529 2°19.735 48.4 3.4 30 26.1
2007-11-20 11:49:04 51°30.575 2°19.765 39.9 2.6 19 25.1
2007-11-20 11:50:04 51°30.616 2°19.797 55.6 3.8 46 27.5
2007-11-20 11:51:04 51°30.611 2°19.887 145.1 2.9 141 26.7
2007-11-20 11:52:04 51°30.586 2°19.892 187.1 0.7 197 24
2007-11-20 11:53:04 51°30.582 2°19.882 190.1 0.4 253 26.3
2007-11-20 11:54:04 51°30.583 2°19.874 183.1 0.4 308 25.2
2007-11-20 11:55:03 51°30.585 2°19.867 179.4 1.3 197 23
2007-11-20 11:56:04 51°30.55 2°19.796 234.7 3.7 240 25.6
2007-11-20 11:57:04 51°30.516 2°19.731 219 2.5 233 29.1
2007-11-20 11:58:04 51°30.501 2°19.681 233.5 2 255 28.2
2007-11-20 11:59:04 51°30.501 2°19.63 245.6 1.7 274 28
2007-11-20 12:00:03 51°30.502 2°19.594 234.6 1.2 276 28.3
2007-11-20 12:01:04 51°30.506 2°19.566 223.9 0.9 292 28.6
2007-11-20 12:02:04 51°30.512 2°19.548 213.4 0.7 303 28.1
2007-11-20 12:03:03 51°30.521 2°19.535 204.4 0.8 324 28.3
2007-11-20 12:04:03 51°30.532 2°19.523 197.9 0.7 324 28.5
2007-11-20 12:05:03 51°30.543 2°19.511 192.9 0.8 330 29.6
2007-11-20 12:06:03 51°30.555 2°19.498 189.4 1 325 29.2
2007-11-20 12:07:04 51°30.569 2°19.484 189.3 1 324 30
2007-11-20 12:08:04 51°30.582 2°19.47 193.8 1 327 31.3
2007-11-20 12:09:04 51°30.596 2°19.456 193 0.9 328 32.1
2007-11-20 12:10:03 51°30.61 2°19.443 195 1 333 32.1
2007-11-20 12:11:03 51°30.626 2°19.43 199.3 1.1 334 28.3
2007-11-20 12:12:04 51°30.632 2°19.417 187.4 0.8 195 25.9
2007-11-20 12:13:04 51°30.613 2°19.44 133.9 1.8 114 31.9
2007-11-20 12:14:03 51°30.604 2°19.498 116.8 2.1 98 31.1
2007-11-20 12:15:03 51°30.599 2°19.538 136.8 1 113 23.9
2007-11-20 12:16:04 51°30.595 2°19.548 156.2 0.3 231 23.8
2007-11-20 12:17:04 51°30.597 2°19.543 165.4 0.3 316 23.7
2007-11-20 12:18:04 51°30.603 2°19.535 168.3 0.6 321 23.9
2007-11-20 12:19:03 51°30.611 2°19.524 170.5 0.8 317 24.1
2007-11-20 12:20:03 51°30.622 2°19.508 178.3 1 319 23.4
2007-11-20 12:21:03 51°30.636 2°19.493 191.4 1 328 24.4
2007-11-20 12:22:03 51°30.651 2°19.479 199 1.2 330 26
2007-11-20 12:23:03 51°30.665 2°19.463 205.6 1 323 27.9
2007-11-20 12:24:03 51°30.679 2°19.448 203.1 0.9 329 29.4
2007-11-20 12:25:03 51°30.693 2°19.433 201.2 1 326 30.6
2007-11-20 12:26:03 51°30.701 2°19.416 192.7 0.8 228 31.7
2007-11-20 12:27:03 51°30.682 2°19.424 144 2 140 29.9
2007-11-20 12:28:03 51°30.661 2°19.475 128.5 1.9 119 27.3
2007-11-20 12:29:03 51°30.65 2°19.511 127 1.2 111 26.2
2007-11-20 12:30:03 51°30.645 2°19.536 126 0.7 107 26.6
2007-11-20 12:31:03 51°30.645 2°19.545 132.3 0.3 44 27
2007-11-20 12:32:03 51°30.649 2°19.538 146.5 0.7 303 26.8
2007-11-20 12:33:03 51°30.657 2°19.521 166.4 0.9 316 26.9
2007-11-20 12:34:04 51°30.668 2°19.504 187.6 1 315 27.9
2007-11-20 12:35:03 51°30.679 2°19.486 200.9 0.9 311 29
2007-11-20 12:36:04 51°30.675 2°19.468 179.4 1.2 195 28.8
2007-11-20 12:37:03 51°30.648 2°19.498 133.5 3 128 26.1
2007-11-20 12:38:03 51°30.621 2°19.577 118.4 3 104 25.7
2007-11-20 12:39:03 51°30.63 2°19.63 76.3 1.3 34 27.4
2007-11-20 12:40:04 51°30.638 2°19.613 36.4 0.9 285 -999
2007-11-20 12:41:04 51°30.643 2°19.591 20.5 0.8 289 27.5
2007-11-20 12:42:03 51°30.65 2°19.572 6.2 0.9 303 27.4
2007-11-20 12:43:03 51°30.66 2°19.551 2.6 1.1 309 28.1
2007-11-20 12:44:03 51°30.671 2°19.532 2.3 0.9 320 29
2007-11-20 12:45:03 51°30.682 2°19.514 8.9 1 320 29.7
2007-11-20 12:46:03 51°30.694 2°19.497 15.9 1 322 30.7
2007-11-20 12:47:04 51°30.738 2°19.46 322.1 4.3 313 31
2007-11-20 12:48:03 51°30.751 2°19.372 255.8 1.9 272 33.5
2007-11-20 12:49:03 51°30.762 2°19.353 226.9 0.9 329 33.8
2007-11-20 12:50:03 51°30.776 2°19.339 224.2 1 328 34.4
2007-11-20 12:51:03 51°30.79 2°19.324 218.3 1 325 34.9
2007-11-20 12:52:03 51°30.803 2°19.308 214.1 1 320 35.9
2007-11-20 12:53:03 51°30.801 2°19.288 186.2 1.3 209 36
2007-11-20 12:54:03 51°30.779 2°19.299 142.6 1.9 137 35.4
2007-11-20 12:55:03 51°30.749 2°19.342 140.7 2.4 141 33
2007-11-20 12:56:03 51°30.726 2°19.37 142.2 1.1 151 32.2
2007-11-20 12:57:03 51°30.713 2°19.375 148.7 0.6 176 31.1
2007-11-20 12:58:03 51°30.704 2°19.374 146.8 0.4 202 31
2007-11-20 12:59:03 51°30.702 2°19.365 151.7 0.6 271 31
2007-11-20 13:00:03 51°30.702 2°19.346 169.5 0.8 270 31
2007-11-20 13:01:03 51°30.695 2°19.328 170.2 0.8 205 30.6
2007-11-20 13:02:03 51°30.68 2°19.334 139.1 1.2 137 29.1
2007-11-20 13:03:03 51°30.674 2°19.367 104 1.2 82 28.1
2007-11-20 13:04:03 51°30.679 2°19.389 108 0.6 65 28.9
2007-11-20 13:05:03 51°30.682 2°19.395 123.8 0.1 294 29.1
2007-11-20 13:06:03 51°30.683 2°19.393 139.2 0.5 147 29
2007-11-20 13:07:04 51°30.66 2°19.461 118 5.4 117 27.3
2007-11-20 13:08:04 51°30.622 2°19.518 152.3 1.8 163 23.5
2007-11-20 13:09:04 51°30.599 2°19.507 186.7 1.4 215 28
2007-11-20 13:10:04 51°30.586 2°19.482 191.6 1 240 30.9
2007-11-20 13:11:04 51°30.581 2°19.46 187.9 0.8 256 30.6
2007-11-20 13:12:04 51°30.582 2°19.437 190.6 0.9 282 30.4
2007-11-20 13:13:04 51°30.587 2°19.413 193.5 1 290 30.3
2007-11-20 13:14:04 51°30.595 2°19.388 201 1 297 30.1
2007-11-20 13:15:03 51°30.603 2°19.363 207.2 1.1 298 30.1
2007-11-20 13:16:03 51°30.612 2°19.338 208.3 1 297 29.9
2007-11-20 13:17:03 51°30.62 2°19.313 208.9 1.1 301 30.4
2007-11-20 13:18:03 51°30.629 2°19.286 213.4 1.1 300 31.9
2007-11-20 13:19:04 51°30.638 2°19.261 214.8 1.1 300 32
2007-11-20 13:20:03 51°30.648 2°19.237 216.2 1.1 301 31.8
2007-11-20 13:21:04 51°30.654 2°19.209 211.1 1.2 263 31.1
2007-11-20 13:22:04 51°30.631 2°19.19 168.8 1.9 183 33.6
2007-11-20 13:23:04 51°30.606 2°19.22 118.7 2.2 107 30.3
2007-11-20 13:24:04 51°30.611 2°19.266 84.9 1.6 54 29.7
2007-11-20 13:25:04 51°30.629 2°19.293 76.8 1.4 39 31.8
2007-11-20 13:26:04 51°30.645 2°19.312 82.2 1.1 33 32.4
2007-11-20 13:27:04 51°30.66 2°19.322 83.4 0.9 16 26.1
2007-11-20 13:28:04 51°30.675 2°19.327 82.8 0.9 7 27.7
2007-11-20 13:29:04 51°30.69 2°19.326 78.2 0.9 353 29.8
2007-11-20 13:30:03 51°30.706 2°19.318 68 1.1 339 30.8
2007-11-20 13:31:03 51°30.725 2°19.317 65.9 1.7 24 31.7
2007-11-20 13:32:03 51°30.747 2°19.339 74.2 1.6 36 32.6
2007-11-20 13:33:03 51°30.767 2°19.37 71.1 1.9 39 33.6
2007-11-20 13:34:03 51°30.79 2°19.398 68.5 1.7 35 33.3
2007-11-20 13:35:03 51°30.812 2°19.411 65.2 1 7 33.7
2007-11-20 13:36:03 51°30.83 2°19.407 64.6 1 339 34.4
2007-11-20 13:37:04 51°30.849 2°19.41 72.5 1.7 45 35.1
2007-11-20 13:38:03 51°30.835 2°19.467 143.3 3.4 156 33.2
2007-11-20 13:39:03 51°30.778 2°19.483 163.7 3.1 172 29.6
2007-11-20 13:40:03 51°30.736 2°19.485 163.6 2.1 184 29.8
2007-11-20 13:41:03 51°30.704 2°19.482 164.5 1.9 196 30.8
2007-11-20 13:42:03 51°30.677 2°19.471 167.5 1.6 193 28.6
2007-11-20 13:43:03 51°30.651 2°19.461 166.8 1.6 198 25.6
2007-11-20 13:44:03 51°30.63 2°19.448 166 1.2 204 25.2
2007-11-20 13:45:03 51°30.619 2°19.435 156.1 0.8 250 30.9
2007-11-20 13:46:04 51°30.619 2°19.41 169.7 1.1 283 30.7
2007-11-20 13:47:03 51°30.627 2°19.38 191.2 1.3 298 31.3
2007-11-20 13:48:03 51°30.636 2°19.354 215.6 1.1 306 30.9
2007-11-20 13:49:04 51°30.647 2°19.329 234.1 1.1 301 31.5
2007-11-20 13:50:03 51°30.657 2°19.303 242.3 1.2 298 26.1
2007-11-20 13:51:04 51°30.666 2°19.277 238.2 1.1 296 27.7
2007-11-20 13:52:04 51°30.673 2°19.25 237.5 1.2 294 29.6
2007-11-20 13:53:04 51°30.679 2°19.221 231.3 1.2 286 31.5
2007-11-20 13:54:04 51°30.684 2°19.192 225 1.1 284 33.1
2007-11-20 13:55:04 51°30.666 2°19.158 185.6 2.9 197 33.8
2007-11-20 13:56:03 51°30.631 2°19.212 100.1 3.2 87 33.1
2007-11-20 13:57:03 51°30.651 2°19.248 47.2 1.3 7 28.5
2007-11-20 13:58:04 51°30.673 2°19.247 45.5 1.2 349 29.6
2007-11-20 13:59:03 51°30.689 2°19.238 50.4 0.9 326 31.1
2007-11-20 14:00:04 51°30.701 2°19.218 48.3 1.1 303 33
2007-11-20 14:01:04 51°30.712 2°19.191 43.1 1.3 299 34.4
2007-11-20 14:02:04 51°30.719 2°19.16 34.6 1.3 284 35.6
2007-11-20 14:03:04 51°30.721 2°19.127 22.2 1.1 277 36.4
2007-11-20 14:04:03 51°30.724 2°19.095 18.7 1.1 282 37
2007-11-20 14:05:03 51°30.727 2°19.064 18.1 1.2 280 37.2
2007-11-20 14:06:03 51°30.731 2°19.033 18.9 1.1 283 37.8
2007-11-20 14:07:03 51°30.735 2°19.004 21.9 1.2 284 38
2007-11-20 14:08:03 51°30.739 2°18.973 24.7 1.3 280 38.3
2007-11-20 14:09:03 51°30.743 2°18.939 23.8 1.2 283 38.4
2007-11-20 14:10:04 51°30.747 2°18.906 24.8 1.3 286 38.5
2007-11-20 14:11:04 51°30.752 2°18.873 26.7 1.2 282 38.8
2007-11-20 14:12:04 51°30.789 2°18.84 341.5 4.2 323 38.9
2007-11-20 14:13:03 51°30.801 2°18.73 247.9 4.2 247 38.7
2007-11-20 14:14:03 51°30.779 2°18.657 228.6 2.4 250 38.8
2007-11-20 14:15:03 51°30.766 2°18.605 218.5 1.8 250 38.6
2007-11-20 14:16:03 51°30.759 2°18.565 212.8 1.5 254 38.7
2007-11-20 14:17:03 51°30.754 2°18.529 206.5 1.3 259 38.6
2007-11-20 14:18:03 51°30.754 2°18.496 205.9 1.3 272 38.2
2007-11-20 14:19:03 51°30.757 2°18.462 209 1.2 279 37.7
2007-11-20 14:20:03 51°30.753 2°18.423 203.7 2.2 226 37.5
2007-11-20 14:21:04 51°30.696 2°18.433 145.8 5.5 153 37.7
2007-11-20 14:22:04 51°30.57 2°18.534 150.7 11.1 156 37.9
2007-11-20 14:23:04 51°30.385 2°18.641 158.2 12 161 35.3
2007-11-20 14:24:04 51°30.2 2°18.764 154.4 12.1 157 27.9
2007-11-20 14:25:04 51°30.014 2°18.891 154.1 12.1 157 23.8
2007-11-20 14:26:04 51°29.828 2°19.019 154.9 12.2 156 29
2007-11-20 14:27:04 51°29.641 2°19.146 154.4 12.2 157 29.5
2007-11-20 14:28:04 51°29.454 2°19.275 155 12.2 156 34.8
2007-11-20 14:29:04 51°29.267 2°19.401 154.5 12.1 157 32.7
2007-11-20 14:30:04 51°29.081 2°19.529 153.8 12.1 157 30.9
2007-11-20 14:31:04 51°28.895 2°19.653 154.1 12.1 158 36.1
2007-11-20 14:32:04 51°28.707 2°19.778 153.9 12.2 156 35.8
2007-11-20 14:33:04 51°28.524 2°19.912 149.8 12 152 32.9
2007-11-20 14:34:04 51°28.349 2°20.064 148.8 12 152 35
2007-11-20 14:35:04 51°28.173 2°20.216 148.4 12 151 33.6
2007-11-20 14:36:04 51°27.996 2°20.37 149.4 12 151 34.2
2007-11-20 14:37:04 51°27.819 2°20.521 150.3 12.1 151 28.7
2007-11-20 14:38:04 51°27.65 2°20.693 144.4 12.1 146 27.5
2007-11-20 14:39:04 51°27.48 2°20.869 144.4 12.2 148 24.7
2007-11-20 14:40:04 51°27.311 2°21.048 144.9 12.2 147 20.6
2007-11-20 14:41:04 51°27.14 2°21.222 145.7 12.3 148 23.7
2007-11-20 14:42:04 51°26.968 2°21.395 145.9 12.3 150 23.8
2007-11-20 14:43:04 51°26.794 2°21.567 145.1 12.1 148 29.7
2007-11-20 14:44:04 51°26.622 2°21.737 145.2 12.2 148 32.8
2007-11-20 14:45:04 51°26.45 2°21.906 144.8 12.2 148 30.9
2007-11-20 14:46:04 51°26.278 2°22.079 145.1 12.2 148 24.4
2007-11-20 14:47:04 51°26.108 2°22.25 145.8 12 148 14.6
2007-11-20 14:48:04 51°25.938 2°22.419 145.1 12.1 148 18.5
2007-11-20 14:49:04 51°25.766 2°22.593 145.2 12.3 148 29.8
2007-11-20 14:50:04 51°25.593 2°22.763 145.5 12.2 150 33.8
2007-11-20 14:51:04 51°25.42 2°22.933 144.5 12.1 149 34.3
2007-11-20 14:52:04 51°25.247 2°23.104 145.2 12.2 148 33.6
2007-11-20 14:53:04 51°25.074 2°23.273 145.7 12.1 149 33.1
2007-11-20 14:54:04 51°24.902 2°23.444 144.6 12.1 148 32.2
2007-11-20 14:55:04 51°24.73 2°23.615 144.7 12.1 150 30.7
2007-11-20 14:56:04 51°24.555 2°23.783 145.6 12.2 149 31.8
2007-11-20 14:57:04 51°24.373 2°23.928 150.4 12.1 155 31.4
2007-11-20 14:58:04 51°24.191 2°24.075 149.5 12.3 154 30.7
2007-11-20 14:59:04 51°24.006 2°24.228 148.2 12.5 152 32.8
2007-11-20 15:00:04 51°23.822 2°24.383 149.5 12.5 152 32.6
2007-11-20 15:01:04 51°23.636 2°24.537 149.5 12.5 152 34.4
2007-11-20 15:02:04 51°23.451 2°24.691 149 12.5 153 33.4
2007-11-20 15:03:04 51°23.263 2°24.841 149.5 12.6 154 32.7
2007-11-20 15:04:04 51°23.076 2°24.993 149.4 12.5 153 32
2007-11-20 15:05:04 51°22.89 2°25.145 149.2 12.6 153 31.4
2007-11-20 15:06:04 51°22.706 2°25.299 149.6 12.5 153 26.2
2007-11-20 15:07:04 51°22.521 2°25.448 149.7 12.5 153 18.7
2007-11-20 15:08:04 51°22.336 2°25.597 149.5 12.4 154 23.8
2007-11-20 15:09:04 51°22.151 2°25.745 149.4 12.4 154 30.4
2007-11-20 15:10:04 51°21.964 2°25.891 150.3 12.5 154 32.2
2007-11-20 15:11:04 51°21.817 2°26.097 120.1 11.6 118 32.7
2007-11-20 15:12:04 51°21.812 2°26.396 81.5 11.6 81 33.9
2007-11-20 15:13:04 51°21.806 2°26.705 95.1 11.7 97 33
2007-11-20 15:14:04 51°21.78 2°27.013 96.5 11.8 97 32.8
2007-11-20 15:15:04 51°21.762 2°27.322 93.8 11.7 96 32.7
2007-11-20 15:16:04 51°21.746 2°27.631 94.1 11.7 95 32.7
2007-11-20 15:17:04 51°21.731 2°27.94 93.7 11.7 94 32.6
2007-11-20 15:18:04 51°21.714 2°28.247 95.8 11.5 94 32.4
2007-11-20 15:19:04 51°21.699 2°28.554 94.9 11.6 96 32.2
2007-11-20 15:20:04 51°21.683 2°28.859 95.1 11.5 95 32.3
2007-11-20 15:21:04 51°21.665 2°29.163 95 11.6 94 32
2007-11-20 15:22:04 51°21.648 2°29.468 95.2 11.5 95 31.2
2007-11-20 15:23:04 51°21.631 2°29.771 94.7 11.4 94 30.3
2007-11-20 15:24:04 51°21.615 2°30.073 95.2 11.5 94 29.9
2007-11-20 15:25:04 51°21.601 2°30.377 94.3 11.5 94 30.4
2007-11-20 15:26:04 51°21.588 2°30.68 94.9 11.4 95 29.3
2007-11-20 15:27:04 51°21.574 2°30.982 95.3 11.3 94 25.2
2007-11-20 15:28:04 51°21.56 2°31.283 95.2 11.4 94 22.8
2007-11-20 15:29:04 51°21.548 2°31.584 95.9 11.2 94 20.7
2007-11-20 15:30:04 51°21.535 2°31.887 95.8 11.4 94 17.2
2007-11-20 15:31:04 51°21.514 2°32.194 100.3 11.7 100 18.2
2007-11-20 15:32:04 51°21.465 2°32.5 107.5 12 108 19.1
2007-11-20 15:33:04 51°21.39 2°32.794 112.4 12 113 22.8
2007-11-20 15:34:04 51°21.313 2°33.088 112.2 12 114 26.9
2007-11-20 15:35:04 51°21.227 2°33.375 115.2 12 116 29.7
2007-11-20 15:36:04 51°21.138 2°33.66 117.5 12.1 119 31.1
2007-11-20 15:37:04 51°21.042 2°33.942 117.1 12.1 118 29.5
2007-11-20 15:38:04 51°20.946 2°34.223 117.6 12.1 120 29.9
2007-11-20 15:39:04 51°20.849 2°34.503 117.2 11.9 119 31.1
2007-11-20 15:40:04 51°20.755 2°34.78 117.4 11.8 119 30.5
2007-11-20 15:41:04 51°20.662 2°35.055 116.8 11.7 118 29.5
2007-11-20 15:42:04 51°20.567 2°35.329 117 11.7 118 27.8
2007-11-20 15:43:04 51°20.475 2°35.604 118 11.7 118 21.1
2007-11-20 15:44:04 51°20.382 2°35.879 116.1 11.8 118 17.6
2007-11-20 15:45:04 51°20.285 2°36.154 117.8 11.9 119 18.4
2007-11-20 15:46:04 51°20.191 2°36.431 117.5 11.9 120 20.6
2007-11-20 15:47:04 51°20.094 2°36.706 117.1 11.8 119 21.2
2007-11-20 15:48:04 51°20.001 2°36.984 117.3 12 119 20.8
2007-11-20 15:49:04 51°19.903 2°37.26 117 11.9 119 20.8
2007-11-20 15:50:04 51°19.808 2°37.538 117.2 11.9 119 20.5
2007-11-20 15:51:04 51°19.71 2°37.815 118.1 12 121 19.7
2007-11-20 15:52:04 51°19.614 2°38.092 117.4 12 120 22
2007-11-20 15:53:04 51°19.516 2°38.371 116.1 12 118 22.6
2007-11-20 15:54:04 51°19.416 2°38.649 117.8 12.1 121 25.3
2007-11-20 15:55:04 51°19.314 2°38.928 118.3 12.1 119 27.7
2007-11-20 15:56:04 51°19.211 2°39.208 117.1 12.2 120 27.7
2007-11-20 15:57:04 51°19.109 2°39.491 118 12.3 120 25.5
2007-11-20 15:58:04 51°19.009 2°39.776 116.8 12.3 119 23.2
2007-11-20 15:59:04 51°18.911 2°40.056 117.5 12.1 121 22.1
2007-11-20 16:00:04 51°18.812 2°40.332 117.6 11.8 121 21.6
2007-11-20 16:01:04 51°18.713 2°40.599 117.5 11.4 122 12.5
2007-11-20 16:02:04 51°18.611 2°40.868 117.8 11.8 122 15.8
2007-11-20 16:03:04 51°18.509 2°41.135 116.8 11.9 121 18.6
2007-11-20 16:04:04 51°18.406 2°41.404 116.5 12 121 20
2007-11-20 16:05:04 51°18.302 2°41.677 117.4 12.1 122 21.2
2007-11-20 16:06:04 51°18.202 2°41.954 116.7 11.9 120 22.8
2007-11-20 16:07:04 51°18.12 2°42.24 106.4 11.8 107 23.2
2007-11-20 16:08:04 51°18.067 2°42.54 103 11.8 105 23.5
2007-11-20 16:09:04 51°18.03 2°42.846 96.8 11.7 99 23
2007-11-20 16:10:04 51°17.993 2°43.152 99.5 11.7 102 20.2
2007-11-20 16:11:04 51°17.925 2°43.446 113.2 11.9 117 11.3
2007-11-20 16:12:04 51°17.82 2°43.716 117.9 12 124 11.9
2007-11-20 16:13:04 51°17.715 2°43.982 115.5 12 121 14.9
2007-11-20 16:14:04 51°17.603 2°44.245 118.5 12.1 126 16.4
2007-11-20 16:15:04 51°17.49 2°44.508 117.5 12.1 124 16.1
2007-11-20 16:16:04 51°17.373 2°44.771 117.9 12.2 124 16.1
2007-11-20 16:17:04 51°17.259 2°45.035 118.2 12.1 123 14.7
2007-11-20 16:18:04 51°17.138 2°45.296 124.4 12.5 133 13
2007-11-20 16:19:04 51°16.982 2°45.522 133.1 12.8 140 11.4
2007-11-20 16:20:04 51°16.816 2°45.74 134 13 143 10.6
2007-11-20 16:21:04 51°16.637 2°45.927 143.4 12.7 149 9.6
2007-11-20 16:22:04 51°16.453 2°46.104 144.4 12.7 147 9.2
2007-11-20 16:23:04 51°16.3 2°46.325 126.2 12.5 128 9
2007-11-20 16:24:04 51°16.21 2°46.603 110.1 11.6 115 10.9
2007-11-20 16:25:04 51°16.123 2°46.89 111 12 114 12.7
2007-11-20 16:26:04 51°16.036 2°47.178 113.9 11.9 116 15.5
2007-11-20 16:27:04 51°15.952 2°47.465 112.6 12 115 15.5
2007-11-20 16:28:04 51°15.867 2°47.751 111.8 11.8 115 14.8
2007-11-20 16:29:04 51°15.78 2°48.038 113.6 12.1 117 13.1
2007-11-20 16:30:04 51°15.689 2°48.324 112.8 12.1 117 10.9
2007-11-20 16:31:04 51°15.587 2°48.601 117.5 12.1 120 10
2007-11-20 16:32:04 51°15.492 2°48.884 116.5 12.2 121 10.6
2007-11-20 16:33:04 51°15.388 2°49.163 115.3 12 117 12.5
2007-11-20 16:34:04 51°15.311 2°49.458 109.6 11.9 113 12.4
2007-11-20 16:35:04 51°15.251 2°49.757 103.5 11.8 107 12.2
2007-11-20 16:36:04 51°15.197 2°50.056 103.2 11.7 107 12.4
2007-11-20 16:37:04 51°15.139 2°50.354 105.4 11.2 107 12.2
2007-11-20 16:38:04 51°15.093 2°50.602 103.9 9.1 106 12.2
2007-11-20 16:39:04 51°15.049 2°50.831 104.4 9 107 11.9
2007-11-20 16:40:04 51°15.006 2°51.059 104.3 9 107 11.6
2007-11-20 16:41:04 51°14.964 2°51.287 103.2 9 105 11.3
2007-11-20 16:42:04 51°14.921 2°51.515 104.6 9 106 11
2007-11-20 16:43:04 51°14.878 2°51.744 104.3 9 106 10.4
2007-11-20 16:44:04 51°14.837 2°51.974 104.5 9 105 10
2007-11-20 16:45:04 51°14.795 2°52.205 103.7 9.1 105 9.8
2007-11-20 16:46:04 51°14.76 2°52.44 100.8 9.2 101 9.4
2007-11-20 16:47:04 51°14.732 2°52.677 98.6 9.1 100 9.1
2007-11-20 16:48:04 51°14.706 2°52.89 99.5 6.8 102 9.2
2007-11-20 16:49:04 51°14.684 2°53.048 99.4 5.8 102 9
2007-11-20 16:50:04 51°14.665 2°53.187 99.3 4.7 103 8.8
2007-11-20 16:51:04 51°14.647 2°53.295 101.6 4 105 8.7
2007-11-20 16:52:04 51°14.63 2°53.393 101.3 3.7 106 8.5
2007-11-20 16:53:04 51°14.613 2°53.485 102.9 3.6 107 8.4
2007-11-20 16:54:04 51°14.594 2°53.571 104.5 3.2 110 8.6
2007-11-20 16:55:04 51°14.578 2°53.646 103.5 2.9 109 9.5
2007-11-20 16:56:04 51°14.563 2°53.717 101.4 2.8 107 9.9
2007-11-20 16:57:04 51°14.55 2°53.787 102.1 2.7 106 9.9
2007-11-20 16:58:04 51°14.537 2°53.855 105.3 2.7 109 9.9
2007-11-20 16:59:04 51°14.522 2°53.932 103.5 3.6 106 9.9
2007-11-20 17:00:04 51°14.502 2°54.06 102.4 6.8 102 9.9
2007-11-20 17:01:04 51°14.473 2°54.318 99.3 11.6 98 10.6
2007-11-20 17:02:04 51°14.438 2°54.629 102.6 12 100 10.5
2007-11-20 17:03:04 51°14.383 2°54.936 111 12 114 9.9
2007-11-20 17:04:04 51°14.282 2°55.206 125.5 11.2 128 9.8
2007-11-20 17:05:04 51°14.169 2°55.364 150.7 8.3 150 10.3
2007-11-20 17:06:04 51°14.052 2°55.459 156 8 154 9.3
2007-11-20 17:07:04 51°13.931 2°55.55 156.6 8 154 -999
2007-11-20 17:08:04 51°13.818 2°55.638 151.7 6.8 151 -999
2007-11-20 17:09:04 51°13.74 2°55.735 135.6 5.6 135 -999
2007-11-20 17:10:04 51°13.682 2°55.846 128.4 5.3 127 -999
2007-11-20 17:11:04 51°13.636 2°55.95 123.2 4.3 122 -999
2007-11-20 17:12:04 51°13.609 2°56.04 111.9 3.2 110 -999
2007-11-20 17:13:04 51°13.601 2°56.086 118.3 0.8 106 -999